MAPA DE AEROPUERTO

INFORMACIÓN METAR y TAF


Deprecated: The each() function is deprecated. This message will be suppressed on further calls in /home/customer/www/clickair-va.com/public_html/VAM/vam/helpers/get_metar.php on line 20
METAR FOR HCMF
ADDS - METARS form results

(0427 UTC 25 May 2022)
Data provider http://aviationweather.gov/metar/data/
 
METAR text: HCMF 250400Z 17005KT CAVOOK 30/27 Q1004
Conditions at: HCMF (BOSASO , SO) observed 0400 UTC 25 May 2022
Temperature: 30.0°C (86°F)
Dewpoint: 27.0°C (81°F) [RH = 84%]
Pressure (altimeter): 29.65 inches Hg (1004.0 mb)
Winds: from the S (170 degrees) at 6 MPH (5 knots; 2.6 m/s)
Visibility: missing
Ceiling: unknown
Clouds: missing
Weather: no significant weather observed at this time